Time,TemperatureF,DewpointF,PressureIn,WindDirection,WindDirectionDegrees,WindSpeedMPH,WindSpeedGustMPH,Humidity,HourlyPrecipIn,Conditions,Clouds,dailyrainin,SoftwareType,DateUTC
2013-06-06 00:05:00,71.8,65.6,29.84,East,90,2.2,-999.0,81,-99.99,,,0.00,Acu-Link.com,2013-06-06 04:05:00,
2013-06-06 00:20:00,71.6,65.8,29.83,East,90,2.2,-999.0,82,-99.99,,,0.00,Acu-Link.com,2013-06-06 04:20:00,
2013-06-06 00:35:00,71.4,66.0,29.83,East,90,2.2,-999.0,83,-99.99,,,0.00,Acu-Link.com,2013-06-06 04:35:00,
2013-06-06 00:50:00,71.6,66.2,29.83,East,90,1.7,-999.0,83,-99.99,,,0.00,Acu-Link.com,2013-06-06 04:50:00,
2013-06-06 01:05:00,71.6,66.5,29.83,ENE,67,2.2,-999.0,84,-99.99,,,0.00,Acu-Link.com,2013-06-06 05:05:00,
2013-06-06 01:21:00,71.8,67.0,29.82,ENE,67,1.1,-999.0,85,-99.99,,,0.00,Acu-Link.com,2013-06-06 05:21:00,
2013-06-06 01:36:00,72.5,67.7,29.81,SSE,157,1.7,-999.0,85,-99.99,,,0.00,Acu-Link.com,2013-06-06 05:36:00,
2013-06-06 01:51:00,73.0,67.9,29.83,SSE,157,1.7,-999.0,84,-99.99,,,0.00,Acu-Link.com,2013-06-06 05:51:00,
2013-06-06 02:21:00,73.0,67.5,29.80,SE,135,1.1,-999.0,83,-99.99,,,0.00,Acu-Link.com,2013-06-06 06:21:00,
2013-06-06 02:36:00,73.4,67.6,29.80,ESE,112,1.1,-999.0,82,-99.99,,,0.00,Acu-Link.com,2013-06-06 06:36:00,
2013-06-06 02:51:00,73.2,67.4,29.80,SW,225,2.2,-999.0,82,-99.99,,,0.00,Acu-Link.com,2013-06-06 06:51:00,
2013-06-06 03:06:00,73.2,67.4,29.80,West,270,2.2,-999.0,82,-99.99,,,0.00,Acu-Link.com,2013-06-06 07:06:00,
2013-06-06 03:37:00,73.0,67.2,29.78,WSW,247,0.0,-999.0,82,-99.99,,,0.00,Acu-Link.com,2013-06-06 07:37:00,
2013-06-06 03:52:00,73.0,67.5,29.77,NE,45,2.7,-999.0,83,-99.99,,,0.00,Acu-Link.com,2013-06-06 07:52:00,
2013-06-06 04:07:00,72.9,67.4,29.77,SSW,202,1.1,-999.0,83,-99.99,,,0.00,Acu-Link.com,2013-06-06 08:07:00,
2013-06-06 04:22:00,72.9,67.8,29.77,South,180,0.0,-999.0,84,-99.99,,,0.00,Acu-Link.com,2013-06-06 08:22:00,
2013-06-06 04:37:00,72.9,67.8,29.76,NE,45,2.7,-999.0,84,-99.99,,,0.00,Acu-Link.com,2013-06-06 08:37:00,
2013-06-06 04:52:00,73.2,67.7,29.75,SE,135,2.2,-999.0,83,-99.99,,,0.00,Acu-Link.com,2013-06-06 08:52:00,
2013-06-06 05:07:00,73.2,67.4,29.75,SSW,202,2.7,-999.0,82,-99.99,,,0.00,Acu-Link.com,2013-06-06 09:07:00,
2013-06-06 05:22:00,73.2,67.4,29.75,South,180,1.1,-999.0,82,-99.99,,,0.00,Acu-Link.com,2013-06-06 09:22:00,
2013-06-06 05:37:00,73.2,67.4,29.75,South,180,1.7,-999.0,82,-99.99,,,0.00,Acu-Link.com,2013-06-06 09:37:00,
2013-06-06 05:52:00,73.0,67.2,29.75,West,270,1.7,-999.0,82,-99.99,,,0.00,Acu-Link.com,2013-06-06 09:52:00,
2013-06-06 06:08:00,73.0,67.2,29.75,East,90,1.7,-999.0,82,-99.99,,,0.00,Acu-Link.com,2013-06-06 10:08:00,
2013-06-06 06:23:00,73.4,67.6,29.75,ESE,112,1.7,-999.0,82,-99.99,,,0.00,Acu-Link.com,2013-06-06 10:23:00,
2013-06-06 06:38:00,73.8,67.9,29.75,SSW,202,1.1,-999.0,82,-99.99,,,0.00,Acu-Link.com,2013-06-06 10:38:00,
2013-06-06 06:53:00,75.4,68.8,29.76,SSE,157,1.7,-999.0,80,-99.99,,,0.00,Acu-Link.com,2013-06-06 10:53:00,
2013-06-06 07:08:00,77.5,69.3,29.76,NE,45,3.2,-999.0,76,-99.99,,,0.00,Acu-Link.com,2013-06-06 11:08:00,
2013-06-06 07:23:00,78.3,70.1,29.75,ESE,112,2.2,-999.0,76,-99.99,,,0.00,Acu-Link.com,2013-06-06 11:23:00,
2013-06-06 07:39:00,79.7,70.3,29.75,South,180,3.2,-999.0,73,-99.99,,,0.00,Acu-Link.com,2013-06-06 11:39:00,
2013-06-06 07:54:00,81.0,70.3,29.74,ESE,112,1.7,-999.0,70,-99.99,,,0.00,Acu-Link.com,2013-06-06 11:54:00,
2013-06-06 08:09:00,79.9,69.6,29.75,NE,45,4.7,-999.0,71,-99.99,,,0.00,Acu-Link.com,2013-06-06 12:09:00,
2013-06-06 08:24:00,80.2,69.9,29.75,NNE,22,3.2,-999.0,71,-99.99,,,0.00,Acu-Link.com,2013-06-06 12:24:00,
2013-06-06 08:39:00,80.4,70.1,29.75,South,180,4.2,-999.0,71,-99.99,,,0.00,Acu-Link.com,2013-06-06 12:39:00,
2013-06-06 08:54:00,79.3,69.9,29.75,ESE,112,4.7,-999.0,73,-99.99,,,0.00,Acu-Link.com,2013-06-06 12:54:00,
2013-06-06 09:09:00,79.0,70.0,29.75,WSW,247,2.7,-999.0,74,-99.99,,,0.00,Acu-Link.com,2013-06-06 13:09:00,
2013-06-06 09:24:00,81.0,70.3,29.76,ESE,112,4.7,-999.0,70,-99.99,,,0.00,Acu-Link.com,2013-06-06 13:24:00,
2013-06-06 09:39:00,79.9,69.2,29.75,South,180,6.3,-999.0,70,-99.99,,,0.00,Acu-Link.com,2013-06-06 13:39:00,
2013-06-06 09:55:00,79.3,69.5,29.74,South,180,2.2,-999.0,72,-99.99,,,0.00,Acu-Link.com,2013-06-06 13:55:00,
2013-06-06 10:10:00,79.9,69.6,29.75,ESE,112,1.7,-999.0,71,-99.99,,,0.00,Acu-Link.com,2013-06-06 14:10:00,
2013-06-06 10:25:00,80.4,70.1,29.75,WSW,247,1.7,-999.0,71,-99.99,,,0.00,Acu-Link.com,2013-06-06 14:25:00,
2013-06-06 10:40:00,81.1,70.4,29.76,SE,135,3.7,-999.0,70,-99.99,,,0.00,Acu-Link.com,2013-06-06 14:40:00,
2013-06-06 10:55:00,82.8,71.1,29.75,ESE,112,4.2,-999.0,68,-99.99,,,0.00,Acu-Link.com,2013-06-06 14:55:00,
2013-06-06 11:10:00,82.4,70.8,29.75,ESE,112,3.2,-999.0,68,-99.99,,,0.00,Acu-Link.com,2013-06-06 15:10:00,
2013-06-06 11:25:00,82.4,71.2,29.76,ESE,112,3.2,-999.0,69,-99.99,,,0.00,Acu-Link.com,2013-06-06 15:25:00,
2013-06-06 11:40:00,82.0,71.2,29.76,ESE,112,3.2,-999.0,70,-99.99,,,0.00,Acu-Link.com,2013-06-06 15:40:00,
2013-06-06 11:55:00,81.7,70.9,29.75,South,180,3.2,-999.0,70,-99.99,,,0.00,Acu-Link.com,2013-06-06 15:55:00,
2013-06-06 12:11:00,81.5,70.7,29.75,SSE,157,3.7,-999.0,70,-99.99,,,0.00,Acu-Link.com,2013-06-06 16:11:00,
2013-06-06 12:26:00,82.2,71.0,29.75,ESE,112,4.7,-999.0,69,-99.99,,,0.00,Acu-Link.com,2013-06-06 16:26:00,
2013-06-06 12:41:00,81.7,70.5,29.75,South,180,2.7,-999.0,69,-99.99,,,0.00,Acu-Link.com,2013-06-06 16:41:00,
2013-06-06 12:56:00,81.1,70.4,29.75,ESE,112,3.7,-999.0,70,-99.99,,,0.00,Acu-Link.com,2013-06-06 16:56:00,
2013-06-06 13:11:00,81.0,70.7,29.74,ESE,112,2.2,-999.0,71,-99.99,,,0.00,Acu-Link.com,2013-06-06 17:11:00,
2013-06-06 13:26:00,81.1,70.4,29.73,East,90,5.3,-999.0,70,-99.99,,,0.00,Acu-Link.com,2013-06-06 17:26:00,
2013-06-06 13:41:00,81.0,70.7,29.72,West,270,2.7,-999.0,71,-99.99,,,0.00,Acu-Link.com,2013-06-06 17:41:00,
2013-06-06 13:56:00,81.1,70.8,29.72,South,180,4.7,-999.0,71,-99.99,,,0.00,Acu-Link.com,2013-06-06 17:56:00,
2013-06-06 14:11:00,81.5,71.2,29.71,ESE,112,2.2,-999.0,71,-99.99,,,0.00,Acu-Link.com,2013-06-06 18:11:00,
2013-06-06 14:27:00,81.5,71.2,29.70,SSE,157,4.7,-999.0,71,-99.99,,,0.00,Acu-Link.com,2013-06-06 18:27:00,
2013-06-06 14:42:00,80.4,70.9,29.70,South,180,4.2,-999.0,73,-99.99,,,0.00,Acu-Link.com,2013-06-06 18:42:00,
2013-06-06 14:57:00,80.1,71.4,29.69,SSE,157,2.2,-999.0,75,-99.99,,,0.00,Acu-Link.com,2013-06-06 18:57:00,
2013-06-06 15:12:00,80.6,71.5,29.69,ESE,112,0.0,-999.0,74,-99.99,,,0.00,Acu-Link.com,2013-06-06 19:12:00,
2013-06-06 15:27:00,81.5,72.0,29.69,South,180,3.7,-999.0,73,-99.99,,,0.00,Acu-Link.com,2013-06-06 19:27:00,
2013-06-06 15:42:00,81.3,71.8,29.68,East,90,2.7,-999.0,73,-99.99,,,0.00,Acu-Link.com,2013-06-06 19:42:00,
2013-06-06 15:57:00,79.2,72.9,29.68,SSW,202,3.2,-999.0,81,-99.99,,,0.00,Acu-Link.com,2013-06-06 19:57:00,
2013-06-06 16:12:00,77.7,72.8,29.67,ESE,112,1.1,-999.0,85,-99.99,,,0.01,Acu-Link.com,2013-06-06 20:12:00,
2013-06-06 16:27:00,76.8,73.0,29.67,SSE,157,2.2,-999.0,88,-99.99,,,0.04,Acu-Link.com,2013-06-06 20:27:00,
2013-06-06 16:43:00,75.6,72.1,29.67,NE,45,1.1,-999.0,89,-99.99,,,0.04,Acu-Link.com,2013-06-06 20:43:00,
2013-06-06 16:58:00,75.7,71.5,29.68,ESE,112,1.7,-999.0,87,-99.99,,,0.04,Acu-Link.com,2013-06-06 20:58:00,